createdAt,value
2019-04-05T00:00:03.778Z,6.05
2019-04-05T00:00:08.087Z,6.05
2019-04-05T00:00:12.377Z,6.04
2019-04-05T00:00:16.758Z,6.03
2019-04-05T00:00:20.953Z,6.03
2019-04-05T00:00:25.243Z,6.03
2019-04-05T00:00:29.530Z,6.02
2019-04-05T00:00:33.829Z,6.02
2019-04-05T00:00:38.123Z,6.01
2019-04-05T00:00:42.420Z,6.01
2019-04-05T00:00:46.612Z,6.01
2019-04-05T00:00:50.927Z,6.02
2019-04-05T00:00:55.228Z,6.01
2019-04-05T00:00:59.524Z,6.01
2019-04-05T00:01:03.830Z,6.01
2019-04-05T00:01:08.131Z,6.02
2019-04-05T00:01:12.431Z,6.01
2019-04-05T00:01:16.742Z,6.01
2019-04-05T00:01:21.038Z,6
2019-04-05T00:01:25.388Z,6
2019-04-05T00:01:29.700Z,6
2019-04-05T00:01:33.917Z,6
2019-04-05T00:01:38.221Z,6
2019-04-05T00:01:42.510Z,6
2019-04-05T00:01:46.889Z,6
2019-04-05T00:01:51.182Z,5.99
2019-04-05T00:01:55.489Z,5.98
2019-04-05T00:01:59.779Z,5.99
2019-04-05T00:02:04.090Z,5.98
2019-04-05T00:02:08.390Z,5.97
2019-04-05T00:02:12.682Z,5.97
2019-04-05T00:02:16.974Z,5.96
2019-04-05T00:02:21.269Z,5.96
2019-04-05T00:02:25.462Z,5.95
2019-04-05T00:02:29.753Z,5.94
2019-04-05T00:02:34.044Z,5.94
2019-04-05T00:02:38.240Z,5.93
2019-04-05T00:02:42.618Z,5.92
2019-04-05T00:02:46.904Z,5.92
2019-04-05T00:02:51.206Z,5.92
2019-04-05T00:02:55.493Z,5.91
2019-04-05T00:02:59.787Z,5.9
2019-04-05T00:03:04.037Z,5.89
2019-04-05T00:03:08.371Z,5.89
2019-04-05T00:03:12.667Z,5.89
2019-04-05T00:03:16.971Z,5.88
2019-04-05T00:03:21.262Z,5.89
2019-04-05T00:03:25.555Z,5.88
2019-04-05T00:03:29.751Z,5.86
2019-04-05T00:03:33.942Z,5.85
2019-04-05T00:03:38.246Z,5.86
2019-04-05T00:03:42.544Z,5.84
2019-04-05T00:03:46.840Z,5.84
2019-04-05T00:03:51.145Z,5.84
2019-04-05T00:03:55.497Z,5.84
2019-04-05T00:03:59.803Z,5.83
2019-04-05T00:04:04.247Z,5.83
2019-04-05T00:04:08.574Z,5.82
2019-04-05T00:04:12.767Z,5.82
2019-04-05T00:04:17.058Z,5.82
2019-04-05T00:04:21.348Z,5.81
2019-04-05T00:04:25.561Z,5.82
2019-04-05T00:04:29.868Z,5.81
2019-04-05T00:04:34.191Z,5.81
2019-04-05T00:04:38.479Z,5.8
2019-04-05T00:04:42.774Z,5.8
2019-04-05T00:04:47.085Z,5.8
2019-04-05T00:04:51.277Z,5.8
2019-04-05T00:04:55.566Z,5.78
2019-04-05T00:04:59.863Z,5.78
2019-04-05T00:05:04.166Z,5.78
2019-04-05T00:05:08.453Z,5.78
2019-04-05T00:05:12.652Z,5.77
2019-04-05T00:05:16.867Z,5.78
2019-04-05T00:05:21.066Z,5.76
2019-04-05T00:05:25.379Z,5.77
2019-04-05T00:05:29.694Z,5.76
2019-04-05T00:05:34.011Z,5.76
2019-04-05T00:05:38.296Z,5.76
2019-04-05T00:05:42.596Z,5.75
2019-04-05T00:05:46.894Z,5.75
2019-04-05T00:05:51.130Z,5.75
2019-04-05T00:05:55.330Z,5.74
2019-04-05T00:05:59.627Z,5.73
2019-04-05T00:06:03.979Z,5.73
2019-04-05T00:06:08.206Z,5.73
2019-04-05T00:06:12.515Z,5.72
2019-04-05T00:06:16.812Z,5.72
2019-04-05T00:06:21.014Z,5.72
2019-04-05T00:06:25.304Z,5.72
2019-04-05T00:06:29.631Z,5.71
2019-04-05T00:06:33.830Z,5.72
2019-04-05T00:06:38.136Z,5.71
2019-04-05T00:06:42.512Z,5.7
2019-04-05T00:06:46.707Z,5.71
2019-04-05T00:06:50.999Z,5.71
2019-04-05T00:06:55.296Z,5.7
2019-04-05T00:06:59.635Z,5.69
2019-04-05T00:07:04.033Z,5.69
2019-04-05T00:07:08.240Z,5.69
2019-04-05T00:07:12.537Z,5.69
2019-04-05T00:07:16.830Z,5.67
2019-04-05T00:07:21.121Z,5.68
2019-04-05T00:07:25.414Z,5.67
2019-04-05T00:07:29.607Z,5.67
2019-04-05T00:07:33.933Z,5.66
2019-04-05T00:07:38.041Z,5.65
2019-04-05T00:07:42.341Z,5.65
2019-04-05T00:07:46.645Z,5.66
2019-04-05T00:07:50.859Z,5.65
2019-04-05T00:07:55.148Z,5.64
2019-04-05T00:07:59.456Z,5.64
2019-04-05T00:08:03.744Z,5.64
2019-04-05T00:08:08.042Z,5.63
2019-04-05T00:08:12.340Z,5.62
2019-04-05T00:08:16.658Z,5.62
2019-04-05T00:08:20.858Z,5.62
2019-04-05T00:08:25.056Z,5.62
2019-04-05T00:08:29.368Z,5.6
2019-04-05T00:08:33.563Z,5.62
2019-04-05T00:08:37.867Z,5.61
2019-04-05T00:08:42.154Z,5.6
2019-04-05T00:08:46.356Z,5.6
2019-04-05T00:08:50.562Z,5.59
2019-04-05T00:08:54.863Z,5.59
2019-04-05T00:08:59.154Z,5.59
2019-04-05T00:09:03.467Z,5.58
2019-04-05T00:09:07.755Z,5.58
2019-04-05T00:09:12.067Z,5.57
2019-04-05T00:09:16.366Z,5.57
2019-04-05T00:09:20.662Z,5.57
2019-04-05T00:09:24.965Z,5.57
2019-04-05T00:09:29.323Z,5.56
2019-04-05T00:09:33.526Z,5.56
2019-04-05T00:09:37.816Z,5.57
2019-04-05T00:09:42.166Z,5.55
2019-04-05T00:09:46.476Z,5.56
2019-04-05T00:09:50.770Z,5.56
2019-04-05T00:09:55.071Z,5.55
2019-04-05T00:09:59.359Z,5.56
2019-04-05T00:10:03.666Z,5.55
2019-04-05T00:10:07.965Z,5.56
2019-04-05T00:10:12.163Z,5.56
2019-04-05T00:10:16.511Z,5.55
2019-04-05T00:10:20.802Z,5.55
2019-04-05T00:10:25.106Z,5.55
2019-04-05T00:10:29.397Z,5.55
2019-04-05T00:10:33.683Z,5.55
2019-04-05T00:10:37.990Z,5.55
2019-04-05T00:10:42.313Z,5.54
2019-04-05T00:10:46.581Z,5.54
2019-04-05T00:10:50.879Z,5.54
2019-04-05T00:10:55.186Z,5.55
2019-04-05T00:10:59.385Z,5.54
2019-04-05T00:11:03.677Z,5.54
2019-04-05T00:11:07.966Z,5.53
2019-04-05T00:11:12.257Z,5.54
2019-04-05T00:11:16.549Z,5.54
2019-04-05T00:11:20.838Z,5.54
2019-04-05T00:11:25.144Z,5.54
2019-04-05T00:11:29.431Z,5.54
2019-04-05T00:11:33.721Z,5.53
2019-04-05T00:11:38.019Z,5.53
2019-04-05T00:11:42.326Z,5.54
2019-04-05T00:11:46.644Z,5.53
2019-04-05T00:11:50.929Z,5.53
2019-04-05T00:11:55.227Z,5.53
2019-04-05T00:11:59.426Z,5.53
2019-04-05T00:12:03.782Z,5.53
2019-04-05T00:12:08.066Z,5.52
2019-04-05T00:12:12.281Z,5.54
2019-04-05T00:12:16.496Z,5.53
2019-04-05T00:12:20.795Z,5.52
2019-04-05T00:12:25.082Z,5.52
2019-04-05T00:12:29.281Z,5.52
2019-04-05T00:12:33.585Z,5.52
2019-04-05T00:12:37.923Z,5.53
2019-04-05T00:12:42.138Z,5.53
2019-04-05T00:12:46.437Z,5.52
2019-04-05T00:12:50.761Z,5.53
2019-04-05T00:12:55.059Z,5.53
2019-04-05T00:12:59.355Z,5.52
2019-04-05T00:13:03.732Z,5.53
2019-04-05T00:13:07.936Z,5.52
2019-04-05T00:13:12.228Z,5.52
2019-04-05T00:13:16.321Z,5.54
2019-04-05T00:13:20.525Z,5.52
2019-04-05T00:13:24.816Z,5.52
2019-04-05T00:13:29.011Z,5.53
2019-04-05T00:13:33.305Z,5.53
2019-04-05T00:13:37.598Z,5.52
2019-04-05T00:13:41.893Z,5.52
2019-04-05T00:13:46.196Z,5.51
2019-04-05T00:13:50.517Z,5.52
2019-04-05T00:13:54.814Z,5.52
2019-04-05T00:13:59.009Z,5.51
2019-04-05T00:14:03.301Z,5.52
2019-04-05T00:14:07.641Z,5.52
2019-04-05T00:14:11.950Z,5.53
2019-04-05T00:14:16.150Z,5.52
2019-04-05T00:14:20.439Z,5.53
2019-04-05T00:14:24.726Z,5.51
2019-04-05T00:14:29.043Z,5.52
2019-04-05T00:14:33.339Z,5.53
2019-04-05T00:14:37.627Z,5.52
2019-04-05T00:14:41.932Z,5.52
2019-04-05T00:14:46.223Z,5.53
2019-04-05T00:14:50.513Z,5.51
2019-04-05T00:14:54.815Z,5.53
2019-04-05T00:14:59.104Z,5.52
2019-04-05T00:15:17.690Z,5.52
2019-04-05T00:15:21.982Z,5.51
2019-04-05T00:15:26.281Z,5.51
2019-04-05T00:15:30.379Z,5.51
2019-04-05T00:15:34.762Z,5.51
2019-04-05T00:15:41.547Z,5.51
2019-04-05T00:15:45.847Z,5.51
2019-04-05T00:15:50.155Z,5.51
2019-04-05T00:15:54.358Z,5.51
2019-04-05T00:15:58.562Z,5.5
2019-04-05T00:16:02.916Z,5.51
2019-04-05T00:16:07.216Z,5.51
2019-04-05T00:16:11.520Z,5.51
2019-04-05T00:16:15.813Z,5.51
2019-04-05T00:16:20.176Z,5.51
2019-04-05T00:16:24.371Z,5.51
2019-04-05T00:16:28.569Z,5.51
2019-04-05T00:16:32.838Z,5.52
2019-04-05T00:16:37.028Z,5.52
2019-04-05T00:16:41.136Z,5.52
2019-04-05T00:16:45.143Z,5.51
2019-04-05T00:16:49.243Z,5.52
2019-04-05T00:16:53.439Z,5.51
2019-04-05T00:16:57.639Z,5.51
2019-04-05T00:17:01.950Z,5.51
2019-04-05T00:17:06.354Z,5.51
2019-04-05T00:17:10.548Z,5.51
2019-04-05T00:17:14.854Z,5.53
2019-04-05T00:17:19.146Z,5.52
2019-04-05T00:17:23.354Z,5.53
2019-04-05T00:17:27.464Z,5.51
2019-04-05T00:17:31.758Z,5.53
2019-04-05T00:17:35.958Z,5.52
2019-04-05T00:17:40.167Z,5.52
2019-04-05T00:17:44.467Z,5.52
2019-04-05T00:17:48.678Z,5.52
2019-04-05T00:17:52.876Z,5.52
2019-04-05T00:17:57.080Z,5.52
2019-04-05T00:18:01.394Z,5.52
2019-04-05T00:18:05.717Z,5.53
2019-04-05T00:18:10.012Z,5.53
2019-04-05T00:18:14.302Z,5.53
2019-04-05T00:18:18.499Z,5.52
2019-04-05T00:18:22.795Z,5.52
2019-04-05T00:18:27.155Z,5.53
2019-04-05T00:18:31.351Z,5.53
2019-04-05T00:18:35.657Z,5.53
2019-04-05T00:18:39.960Z,5.53
2019-04-05T00:18:44.252Z,5.52
2019-04-05T00:18:48.543Z,5.52
2019-04-05T00:18:52.852Z,5.53
2019-04-05T00:18:56.855Z,5.53
2019-04-05T00:19:01.055Z,5.53
2019-04-05T00:19:05.358Z,5.53
2019-04-05T00:19:09.557Z,5.53
2019-04-05T00:19:13.853Z,5.52
2019-04-05T00:19:18.023Z,5.53
2019-04-05T00:19:22.221Z,5.53
2019-04-05T00:19:26.574Z,5.53
2019-04-05T00:19:30.739Z,5.52
2019-04-05T00:19:34.834Z,5.53
2019-04-05T00:19:39.133Z,5.52
2019-04-05T00:19:43.435Z,5.53
2019-04-05T00:19:47.623Z,5.53
2019-04-05T00:19:51.731Z,5.53
2019-04-05T00:19:56.032Z,5.52
2019-04-05T00:20:00.340Z,5.52
2019-04-05T00:20:04.669Z,5.53
2019-04-05T00:20:08.884Z,5.52
2019-04-05T00:20:12.998Z,5.53
2019-04-05T00:20:17.203Z,5.53
2019-04-05T00:20:21.501Z,5.53
2019-04-05T00:20:25.802Z,5.53
2019-04-05T00:20:30.105Z,5.53
2019-04-05T00:20:34.406Z,5.53
2019-04-05T00:20:38.697Z,5.53
2019-04-05T00:20:42.901Z,5.53
2019-04-05T00:20:47.096Z,5.53
2019-04-05T00:20:51.390Z,5.54
2019-04-05T00:20:55.684Z,5.54
2019-04-05T00:20:59.988Z,5.54
2019-04-05T00:21:04.417Z,5.54
2019-04-05T00:21:08.629Z,5.54
2019-04-05T00:21:12.777Z,5.54
2019-04-05T00:21:17.081Z,5.54
2019-04-05T00:21:21.278Z,5.55
2019-04-05T00:21:25.574Z,5.54
2019-04-05T00:21:29.767Z,5.54
2019-04-05T00:21:33.962Z,5.54
2019-04-05T00:21:38.252Z,5.55
2019-04-05T00:21:42.542Z,5.55
2019-04-05T00:21:46.846Z,5.55
2019-04-05T00:21:51.046Z,5.54
2019-04-05T00:21:55.346Z,5.54
2019-04-05T00:21:59.537Z,5.54
2019-04-05T00:22:03.888Z,5.55
2019-04-05T00:22:08.194Z,5.55
2019-04-05T00:22:12.564Z,5.54
2019-04-05T00:22:16.916Z,5.54
2019-04-05T00:22:21.119Z,5.54
2019-04-05T00:22:25.441Z,5.54
2019-04-05T00:22:29.740Z,5.55
2019-04-05T00:22:34.030Z,5.55
2019-04-05T00:22:38.249Z,5.55
2019-04-05T00:22:42.549Z,5.55
2019-04-05T00:22:46.850Z,5.55
2019-04-05T00:22:51.143Z,5.55
2019-04-05T00:22:55.359Z,5.55
2019-04-05T00:22:59.674Z,5.56
2019-04-05T00:23:03.984Z,5.55
2019-04-05T00:23:08.299Z,5.55
2019-04-05T00:23:12.659Z,5.55
2019-04-05T00:23:16.900Z,5.55
2019-04-05T00:23:21.124Z,5.55
2019-04-05T00:23:25.452Z,5.55
2019-04-05T00:23:29.748Z,5.56
2019-04-05T00:23:33.937Z,5.56
2019-04-05T00:23:38.164Z,5.56
2019-04-05T00:23:42.360Z,5.55
2019-04-05T00:23:46.663Z,5.55
2019-04-05T00:23:50.954Z,5.56
2019-04-05T00:23:55.249Z,5.55
2019-04-05T00:23:59.457Z,5.55
2019-04-05T00:24:03.760Z,5.55
2019-04-05T00:24:08.067Z,5.55
2019-04-05T00:24:12.381Z,5.55
2019-04-05T00:24:16.733Z,5.54
2019-04-05T00:24:20.952Z,5.54
2019-04-05T00:24:25.253Z,5.55
2019-04-05T00:24:29.450Z,5.55
2019-04-05T00:24:33.547Z,5.55
2019-04-05T00:24:37.839Z,5.55
2019-04-05T00:24:42.163Z,5.55
2019-04-05T00:24:46.458Z,5.55
2019-04-05T00:24:50.765Z,5.55
2019-04-05T00:24:55.065Z,5.54
2019-04-05T00:24:59.362Z,5.54
2019-04-05T00:25:03.697Z,5.55
2019-04-05T00:25:07.910Z,5.54
2019-04-05T00:25:12.110Z,5.54
2019-04-05T00:25:16.310Z,5.54
2019-04-05T00:25:20.415Z,5.54
2019-04-05T00:25:24.633Z,5.54
2019-04-05T00:25:28.927Z,5.53
2019-04-05T00:25:33.228Z,5.54
2019-04-05T00:25:37.439Z,5.54
2019-04-05T00:25:41.735Z,5.54
2019-04-05T00:25:45.929Z,5.54
2019-04-05T00:25:50.240Z,5.54
2019-04-05T00:25:54.367Z,5.54
2019-04-05T00:25:58.367Z,5.54
2019-04-05T00:26:02.618Z,5.54
2019-04-05T00:26:06.920Z,5.53
2019-04-05T00:26:11.225Z,5.54
2019-04-05T00:26:15.526Z,5.53
2019-04-05T00:26:19.822Z,5.52
2019-04-05T00:26:24.115Z,5.53
2019-04-05T00:26:28.238Z,5.51
2019-04-05T00:26:32.457Z,5.51
2019-04-05T00:26:36.556Z,5.51
2019-04-05T00:26:40.858Z,5.51
2019-04-05T00:26:45.210Z,5.51
2019-04-05T00:26:49.416Z,5.5
2019-04-05T00:26:53.615Z,5.51
2019-04-05T00:26:57.970Z,5.5
2019-04-05T00:27:02.267Z,5.5
2019-04-05T00:27:06.573Z,5.5
2019-04-05T00:27:10.874Z,5.49
2019-04-05T00:27:15.147Z,5.5
2019-04-05T00:27:19.447Z,5.5
2019-04-05T00:27:23.548Z,5.49
2019-04-05T00:27:27.847Z,5.49
2019-04-05T00:27:32.075Z,5.49
2019-04-05T00:27:36.385Z,5.49
2019-04-05T00:27:40.595Z,5.49
2019-04-05T00:27:44.798Z,5.48
2019-04-05T00:27:48.993Z,5.48
2019-04-05T00:27:53.184Z,5.49
2019-04-05T00:27:57.472Z,5.48
2019-04-05T00:28:01.774Z,5.48
2019-04-05T00:28:06.075Z,5.48
2019-04-05T00:28:10.375Z,5.48
2019-04-05T00:28:14.669Z,5.48
2019-04-05T00:28:18.993Z,5.48
2019-04-05T00:28:23.092Z,5.47
2019-04-05T00:28:27.293Z,5.47
2019-04-05T00:28:31.393Z,5.46
2019-04-05T00:28:35.724Z,5.47
2019-04-05T00:28:40.026Z,5.47
2019-04-05T00:28:44.391Z,5.46
2019-04-05T00:28:51.473Z,5.47
2019-04-05T00:28:56.049Z,5.47
2019-04-05T00:29:00.353Z,5.46
2019-04-05T00:29:04.568Z,5.46
2019-04-05T00:29:08.857Z,5.46
2019-04-05T00:29:13.158Z,5.46
2019-04-05T00:29:17.363Z,5.46
2019-04-05T00:29:21.379Z,5.46
2019-04-05T00:29:25.687Z,5.45
2019-04-05T00:29:30.056Z,5.46
2019-04-05T00:29:34.367Z,5.46
2019-04-05T00:29:38.596Z,5.46
2019-04-05T00:29:42.863Z,5.46
2019-04-05T00:29:47.171Z,5.46
2019-04-05T00:29:51.189Z,5.46
2019-04-05T00:29:55.410Z,5.46
2019-04-05T00:29:59.727Z,5.46
2019-04-05T00:30:04.093Z,5.45
2019-04-05T00:30:08.414Z,5.46
2019-04-05T00:30:12.722Z,5.45
2019-04-05T00:30:17.035Z,5.46
2019-04-05T00:30:21.053Z,5.46
2019-04-05T00:30:25.155Z,5.46
2019-04-05T00:30:29.455Z,5.46
2019-04-05T00:30:33.648Z,5.46
2019-04-05T00:30:37.956Z,5.46
2019-04-05T00:30:42.247Z,5.46
2019-04-05T00:30:46.451Z,5.46
2019-04-05T00:30:50.648Z,5.45
2019-04-05T00:30:54.849Z,5.45
2019-04-05T00:30:59.154Z,5.45
2019-04-05T00:31:03.361Z,5.44
2019-04-05T00:31:07.561Z,5.44
2019-04-05T00:31:11.669Z,5.44
2019-04-05T00:31:15.987Z,5.45
2019-04-05T00:31:20.291Z,5.43
2019-04-05T00:31:24.503Z,5.44
2019-04-05T00:31:28.884Z,5.44
2019-04-05T00:31:33.191Z,5.43
2019-04-05T00:31:37.465Z,5.44
2019-04-05T00:31:41.779Z,5.43
2019-04-05T00:31:45.983Z,5.43
2019-04-05T00:31:50.178Z,5.42
2019-04-05T00:31:54.490Z,5.43
2019-04-05T00:31:58.604Z,5.42
2019-04-05T00:32:02.926Z,5.42
2019-04-05T00:32:07.130Z,5.42
2019-04-05T00:32:11.235Z,5.41
2019-04-05T00:32:15.547Z,5.41
2019-04-05T00:32:19.842Z,5.42
2019-04-05T00:32:24.046Z,5.41
2019-04-05T00:32:28.241Z,5.4
2019-04-05T00:32:32.541Z,5.41
2019-04-05T00:32:36.882Z,5.41
2019-04-05T00:32:41.077Z,5.41
2019-04-05T00:32:45.386Z,5.4
2019-04-05T00:32:49.675Z,5.4
2019-04-05T00:32:53.868Z,5.39
2019-04-05T00:32:58.159Z,5.39
2019-04-05T00:33:02.448Z,5.4
2019-04-05T00:33:06.760Z,5.4
2019-04-05T00:33:11.023Z,5.4
2019-04-05T00:33:15.324Z,5.4
2019-04-05T00:33:19.620Z,5.4
2019-04-05T00:33:23.968Z,5.4
2019-04-05T00:33:28.268Z,5.38
2019-04-05T00:33:32.568Z,5.38
2019-04-05T00:33:36.875Z,5.4
2019-04-05T00:33:41.169Z,5.38
2019-04-05T00:33:45.399Z,5.39
2019-04-05T00:33:49.715Z,5.38
2019-04-05T00:33:54.005Z,5.38
2019-04-05T00:33:58.294Z,5.38
2019-04-05T00:34:02.609Z,5.39
2019-04-05T00:34:06.907Z,5.38
2019-04-05T00:34:11.218Z,5.38
2019-04-05T00:34:15.516Z,5.37
2019-04-05T00:34:19.809Z,5.38
2019-04-05T00:34:24.100Z,5.38
2019-04-05T00:34:28.416Z,5.38
2019-04-05T00:34:32.622Z,5.38
2019-04-05T00:34:36.918Z,5.37
2019-04-05T00:34:41.213Z,5.37
2019-04-05T00:34:45.507Z,5.38
2019-04-05T00:34:49.827Z,5.37
2019-04-05T00:34:54.118Z,5.38
2019-04-05T00:34:58.426Z,5.37
2019-04-05T00:35:02.882Z,5.37
2019-04-05T00:35:06.995Z,5.37
2019-04-05T00:35:11.305Z,5.37
2019-04-05T00:35:15.510Z,5.37
2019-04-05T00:35:19.710Z,5.35
2019-04-05T00:35:23.912Z,5.36
2019-04-05T00:35:28.204Z,5.36
2019-04-05T00:35:32.504Z,5.36
2019-04-05T00:35:36.805Z,5.36
2019-04-05T00:35:41.195Z,5.35
2019-04-05T00:35:45.494Z,5.35
2019-04-05T00:35:49.693Z,5.35
2019-04-05T00:35:53.907Z,5.35
2019-04-05T00:35:58.205Z,5.35
2019-04-05T00:36:02.501Z,5.35
2019-04-05T00:36:06.795Z,5.35
2019-04-05T00:36:11.003Z,5.35
2019-04-05T00:36:15.294Z,5.34
2019-04-05T00:36:19.592Z,5.35
2019-04-05T00:36:23.695Z,5.34
2019-04-05T00:36:27.892Z,5.35
2019-04-05T00:36:32.255Z,5.35
2019-04-05T00:36:36.563Z,5.35
2019-04-05T00:36:40.856Z,5.35
2019-04-05T00:36:45.059Z,5.35
2019-04-05T00:36:49.358Z,5.35
2019-04-05T00:36:53.551Z,5.36
2019-04-05T00:36:57.861Z,5.35
2019-04-05T00:37:02.148Z,5.35
2019-04-05T00:37:06.445Z,5.36
2019-04-05T00:37:10.747Z,5.35
2019-04-05T00:37:15.042Z,5.34
2019-04-05T00:37:19.338Z,5.36
2019-04-05T00:37:23.659Z,5.36
2019-04-05T00:37:27.979Z,5.35
2019-04-05T00:37:32.191Z,5.35
2019-04-05T00:37:36.400Z,5.35
2019-04-05T00:37:40.699Z,5.35
2019-04-05T00:37:44.991Z,5.35
2019-04-05T00:37:49.286Z,5.34
2019-04-05T00:37:53.577Z,5.35
2019-04-05T00:37:57.867Z,5.34
2019-04-05T00:38:02.214Z,5.34
2019-04-05T00:38:06.516Z,5.35
2019-04-05T00:38:10.807Z,5.34
2019-04-05T00:38:15.103Z,5.35
2019-04-05T00:38:19.394Z,5.35
2019-04-05T00:38:23.688Z,5.35
2019-04-05T00:38:27.993Z,5.34
2019-04-05T00:38:32.291Z,5.34
2019-04-05T00:38:36.581Z,5.34
2019-04-05T00:38:40.878Z,5.34
2019-04-05T00:38:45.179Z,5.34
2019-04-05T00:38:49.484Z,5.34
2019-04-05T00:38:53.774Z,5.34
2019-04-05T00:38:58.078Z,5.33
2019-04-05T00:39:02.412Z,5.34
2019-04-05T00:39:06.710Z,5.34
2019-04-05T00:39:11.000Z,5.34
2019-04-05T00:39:15.208Z,5.34
2019-04-05T00:39:19.509Z,5.34
2019-04-05T00:39:23.812Z,5.33
2019-04-05T00:39:28.127Z,5.33
2019-04-05T00:39:32.483Z,5.34
2019-04-05T00:39:36.775Z,5.34
2019-04-05T00:39:41.067Z,5.33
2019-04-05T00:39:45.362Z,5.34
2019-04-05T00:39:49.654Z,5.33
2019-04-05T00:39:53.947Z,5.32
2019-04-05T00:39:58.239Z,5.32
2019-04-05T00:40:02.533Z,5.31
2019-04-05T00:40:06.750Z,5.31
2019-04-05T00:40:10.960Z,5.3
2019-04-05T00:40:15.263Z,5.3
2019-04-05T00:40:19.571Z,5.3
2019-04-05T00:40:23.873Z,5.31
2019-04-05T00:40:28.165Z,5.3
2019-04-05T00:40:32.458Z,5.3
2019-04-05T00:40:36.759Z,5.3
2019-04-05T00:40:40.955Z,5.3
2019-04-05T00:40:45.259Z,5.29
2019-04-05T00:40:49.461Z,5.29
2019-04-05T00:40:53.661Z,5.29
2019-04-05T00:40:57.959Z,5.28
2019-04-05T00:41:02.419Z,5.29
2019-04-05T00:41:06.619Z,5.28
2019-04-05T00:41:10.914Z,5.28
2019-04-05T00:41:15.022Z,5.29
2019-04-05T00:41:19.405Z,5.28
2019-04-05T00:41:23.715Z,5.29
2019-04-05T00:41:27.927Z,5.29
2019-04-05T00:41:35.160Z,5.28
2019-04-05T00:41:39.467Z,5.28
2019-04-05T00:41:43.763Z,5.29
2019-04-05T00:41:48.067Z,5.28
2019-04-05T00:41:52.365Z,5.28
2019-04-05T00:41:56.660Z,5.27
2019-04-05T00:42:00.956Z,5.29
2019-04-05T00:42:05.259Z,5.28
2019-04-05T00:42:09.453Z,5.28
2019-04-05T00:42:13.789Z,5.28
2019-04-05T00:42:17.986Z,5.27
2019-04-05T00:42:22.295Z,5.28
2019-04-05T00:42:26.593Z,5.27
2019-04-05T00:42:30.899Z,5.28
2019-04-05T00:42:35.192Z,5.28
2019-04-05T00:42:39.497Z,5.27
2019-04-05T00:42:43.732Z,5.27
2019-04-05T00:42:48.026Z,5.27
2019-04-05T00:42:52.323Z,5.27
2019-04-05T00:42:56.620Z,5.28
2019-04-05T00:43:00.930Z,5.27
2019-04-05T00:43:05.235Z,5.27
2019-04-05T00:43:09.541Z,5.26
2019-04-05T00:43:13.922Z,5.27
2019-04-05T00:43:18.220Z,5.26
2019-04-05T00:43:22.524Z,5.28
2019-04-05T00:43:26.819Z,5.27
2019-04-05T00:43:31.021Z,5.27
2019-04-05T00:43:35.316Z,5.27
2019-04-05T00:43:39.615Z,5.26
2019-04-05T00:43:43.931Z,5.27
2019-04-05T00:43:48.286Z,5.27
2019-04-05T00:43:52.653Z,5.27
2019-04-05T00:43:56.951Z,5.27
2019-04-05T00:44:01.254Z,5.28
2019-04-05T00:44:05.561Z,5.27
2019-04-05T00:44:09.869Z,5.27
2019-04-05T00:44:14.179Z,5.27
2019-04-05T00:44:18.494Z,5.28
2019-04-05T00:44:22.795Z,5.27
2019-04-05T00:44:27.087Z,5.28
2019-04-05T00:44:31.377Z,5.27
2019-04-05T00:44:35.644Z,5.28
2019-04-05T00:44:39.934Z,5.27
2019-04-05T00:44:44.236Z,5.28
2019-04-05T00:44:48.545Z,5.28
2019-04-05T00:44:52.744Z,5.27
2019-04-05T00:44:57.105Z,5.28
2019-04-05T00:45:01.405Z,5.28
2019-04-05T00:45:05.707Z,5.29
2019-04-05T00:45:09.998Z,5.29
2019-04-05T00:45:27.111Z,5.28
2019-04-05T00:45:32.468Z,5.29
2019-04-05T00:45:36.774Z,5.3
2019-04-05T00:45:41.074Z,5.29
2019-04-05T00:45:45.371Z,5.3
2019-04-05T00:45:49.574Z,5.3
2019-04-05T00:45:53.863Z,5.31
2019-04-05T00:45:58.153Z,5.31
2019-04-05T00:46:02.447Z,5.31
2019-04-05T00:46:06.749Z,5.31
2019-04-05T00:46:11.046Z,5.31
2019-04-05T00:46:15.246Z,5.32
2019-04-05T00:46:19.561Z,5.33
2019-04-05T00:46:23.869Z,5.32
2019-04-05T00:46:28.078Z,5.33
2019-04-05T00:46:32.377Z,5.33
2019-04-05T00:46:36.693Z,5.33
2019-04-05T00:46:40.884Z,5.33
2019-04-05T00:46:48.296Z,5.34
2019-04-05T00:46:52.590Z,5.34
2019-04-05T00:46:56.879Z,5.35
2019-04-05T00:47:01.086Z,5.35
2019-04-05T00:47:05.397Z,5.34
2019-04-05T00:47:09.598Z,5.34
2019-04-05T00:47:13.896Z,5.35
2019-04-05T00:47:18.200Z,5.35
2019-04-05T00:47:22.498Z,5.35
2019-04-05T00:47:26.813Z,5.35
2019-04-05T00:47:31.103Z,5.35
2019-04-05T00:47:35.457Z,5.34
2019-04-05T00:47:39.810Z,5.35
2019-04-05T00:47:44.098Z,5.35
2019-04-05T00:47:48.402Z,5.35
2019-04-05T00:47:52.716Z,5.35
2019-04-05T00:47:57.008Z,5.36
2019-04-05T00:48:01.301Z,5.35
2019-04-05T00:48:05.611Z,5.35
2019-04-05T00:48:09.924Z,5.35
2019-04-05T00:48:14.215Z,5.35
2019-04-05T00:48:18.520Z,5.34
2019-04-05T00:48:22.808Z,5.34
2019-04-05T00:48:27.105Z,5.34
2019-04-05T00:48:31.411Z,5.34
2019-04-05T00:48:35.703Z,5.34
2019-04-05T00:48:39.904Z,5.34
2019-04-05T00:48:44.209Z,5.33
2019-04-05T00:48:48.582Z,5.33
2019-04-05T00:48:52.873Z,5.34
2019-04-05T00:48:57.161Z,5.32
2019-04-05T00:49:01.457Z,5.34
2019-04-05T00:49:05.859Z,5.34
2019-04-05T00:49:10.148Z,5.34
2019-04-05T00:49:14.443Z,5.34
2019-04-05T00:49:18.670Z,5.34
2019-04-05T00:49:22.982Z,5.33
2019-04-05T00:49:27.296Z,5.34
2019-04-05T00:49:31.626Z,5.33
2019-04-05T00:49:35.822Z,5.33
2019-04-05T00:49:40.117Z,5.33
2019-04-05T00:49:44.406Z,5.32
2019-04-05T00:49:48.691Z,5.32
2019-04-05T00:49:52.981Z,5.33
2019-04-05T00:49:57.281Z,5.34
2019-04-05T00:50:01.572Z,5.33
2019-04-05T00:50:05.905Z,5.33
2019-04-05T00:50:10.200Z,5.31
2019-04-05T00:50:14.487Z,5.32
2019-04-05T00:50:18.783Z,5.32
2019-04-05T00:50:23.072Z,5.32
2019-04-05T00:50:27.412Z,5.32
2019-04-05T00:50:31.703Z,5.32
2019-04-05T00:50:36.014Z,5.31
2019-04-05T00:50:40.307Z,5.31
2019-04-05T00:50:44.602Z,5.32
2019-04-05T00:50:48.793Z,5.31
2019-04-05T00:50:53.086Z,5.31
2019-04-05T00:50:57.401Z,5.31
2019-04-05T00:51:01.601Z,5.3
2019-04-05T00:51:05.947Z,5.31
2019-04-05T00:51:10.250Z,5.3
2019-04-05T00:51:14.548Z,5.3
2019-04-05T00:51:18.846Z,5.3
2019-04-05T00:51:23.089Z,5.31
2019-04-05T00:51:27.393Z,5.31
2019-04-05T00:51:31.688Z,5.31
2019-04-05T00:51:35.976Z,5.3
2019-04-05T00:51:40.193Z,5.3
2019-04-05T00:51:44.493Z,5.3
2019-04-05T00:51:48.689Z,5.3
2019-04-05T00:51:52.997Z,5.3
2019-04-05T00:51:57.287Z,5.3
2019-04-05T00:52:01.576Z,5.29
2019-04-05T00:52:05.880Z,5.29
2019-04-05T00:52:10.191Z,5.29
2019-04-05T00:52:14.489Z,5.29
2019-04-05T00:52:18.785Z,5.29
2019-04-05T00:52:23.077Z,5.29
2019-04-05T00:52:27.336Z,5.29
2019-04-05T00:52:31.646Z,5.28
2019-04-05T00:52:35.947Z,5.28
2019-04-05T00:52:40.143Z,5.29
2019-04-05T00:52:44.357Z,5.29
2019-04-05T00:52:48.648Z,5.28
2019-04-05T00:52:52.950Z,5.29
2019-04-05T00:52:57.242Z,5.29
2019-04-05T00:53:01.546Z,5.28
2019-04-05T00:53:05.848Z,5.28
2019-04-05T00:53:10.050Z,5.28
2019-04-05T00:53:14.347Z,5.27
2019-04-05T00:53:18.670Z,5.27
2019-04-05T00:53:22.971Z,5.27
2019-04-05T00:53:27.328Z,5.27
2019-04-05T00:53:31.640Z,5.27
2019-04-05T00:53:35.836Z,5.27
2019-04-05T00:53:40.136Z,5.26
2019-04-05T00:53:44.432Z,5.26
2019-04-05T00:53:48.734Z,5.26
2019-04-05T00:53:53.035Z,5.26
2019-04-05T00:53:57.338Z,5.26
2019-04-05T00:54:01.635Z,5.25
2019-04-05T00:54:05.853Z,5.25
2019-04-05T00:54:10.172Z,5.25
2019-04-05T00:54:14.472Z,5.24
2019-04-05T00:54:18.669Z,5.24
2019-04-05T00:54:22.965Z,5.24
2019-04-05T00:54:27.258Z,5.24
2019-04-05T00:54:31.625Z,5.24
2019-04-05T00:54:35.916Z,5.24
2019-04-05T00:54:40.207Z,5.24
2019-04-05T00:54:44.512Z,5.23
2019-04-05T00:54:48.813Z,5.23
2019-04-05T00:54:53.161Z,5.24
2019-04-05T00:54:57.457Z,5.24
2019-04-05T00:55:01.904Z,5.24
2019-04-05T00:55:06.209Z,5.23
2019-04-05T00:55:10.530Z,5.23
2019-04-05T00:55:14.829Z,5.23
2019-04-05T00:55:19.027Z,5.23
2019-04-05T00:55:23.241Z,5.23
2019-04-05T00:55:27.537Z,5.23
2019-04-05T00:55:31.902Z,5.23
2019-04-05T00:55:36.199Z,5.23
2019-04-05T00:55:40.491Z,5.23
2019-04-05T00:55:44.793Z,5.23
2019-04-05T00:55:49.000Z,5.22
2019-04-05T00:55:53.300Z,5.22
2019-04-05T00:55:57.596Z,5.22
2019-04-05T00:56:02.063Z,5.22
2019-04-05T00:56:06.364Z,5.21
2019-04-05T00:56:10.662Z,5.21
2019-04-05T00:56:14.854Z,5.21
2019-04-05T00:56:19.147Z,5.21
2019-04-05T00:56:23.453Z,5.22
2019-04-05T00:56:27.742Z,5.2
2019-04-05T00:56:32.039Z,5.21
2019-04-05T00:56:36.341Z,5.21
2019-04-05T00:56:40.542Z,5.2
2019-04-05T00:56:44.869Z,5.21
2019-04-05T00:56:49.164Z,5.2
2019-04-05T00:56:53.455Z,5.2
2019-04-05T00:56:57.805Z,5.21
2019-04-05T00:57:02.107Z,5.2
2019-04-05T00:57:06.409Z,5.2
2019-04-05T00:57:10.709Z,5.2
2019-04-05T00:57:15.002Z,5.19
2019-04-05T00:57:19.234Z,5.2
2019-04-05T00:57:23.547Z,5.2
2019-04-05T00:57:27.839Z,5.19
2019-04-05T00:57:32.142Z,5.18
2019-04-05T00:57:36.440Z,5.19
2019-04-05T00:57:40.730Z,5.19
2019-04-05T00:57:44.959Z,5.19
2019-04-05T00:57:52.360Z,5.18